createdAt,value
2018-03-02T00:01:03.221Z,14.10
2018-03-02T00:03:30.715Z,12.18
2018-03-02T00:05:58.451Z,13.85
2018-03-02T00:08:29.673Z,11.90
2018-03-02T00:10:57.155Z,12.88
2018-03-02T00:13:24.651Z,12.25
2018-03-02T00:15:52.912Z,13.40
2018-03-02T00:18:20.419Z,12.70
2018-03-02T00:20:47.924Z,12.75
2018-03-02T00:23:15.443Z,13.93
2018-03-02T00:25:42.935Z,14.40
2018-03-02T00:28:10.454Z,14.10
2018-03-02T00:30:38.851Z,14.77
2018-03-02T00:33:06.360Z,14.32
2018-03-02T00:35:33.853Z,14.60
2018-03-02T00:38:01.356Z,13.32
2018-03-02T00:40:28.862Z,13.13
2018-03-02T00:42:56.343Z,12.88
2018-03-02T00:45:23.849Z,13.15
2018-03-02T00:47:51.327Z,13.52
2018-03-02T00:50:18.825Z,14.30
2018-03-02T00:52:46.592Z,14.25
2018-03-02T00:55:14.080Z,12.65
2018-03-02T00:57:41.560Z,12.25
2018-03-02T01:00:09.095Z,12.27
2018-03-02T01:02:36.586Z,13.73
2018-03-02T01:05:04.081Z,13.23
2018-03-02T01:07:31.692Z,13.50
2018-03-02T01:09:59.196Z,15.02
2018-03-02T01:12:27.507Z,14.45
2018-03-02T01:14:55.018Z,13.85
2018-03-02T01:17:22.541Z,14.00
2018-03-02T01:19:50.157Z,13.90
2018-03-02T01:22:17.651Z,13.98
2018-03-02T01:24:45.143Z,14.27
2018-03-02T01:27:12.664Z,14.45
2018-03-02T01:29:40.226Z,13.62
2018-03-02T01:32:07.744Z,13.23
2018-03-02T01:34:35.255Z,14.73
2018-03-02T01:37:02.750Z,13.73
2018-03-02T01:39:30.233Z,14.05
2018-03-02T01:41:57.712Z,13.50
2018-03-02T01:44:25.228Z,15.10
2018-03-02T01:46:52.712Z,13.05
2018-03-02T01:49:20.192Z,13.60
2018-03-02T01:51:49.649Z,15.38
2018-03-02T01:54:17.169Z,15.65
2018-03-02T01:56:44.672Z,14.38
2018-03-02T01:59:12.183Z,14.13
2018-03-02T02:01:39.679Z,13.77
2018-03-02T02:04:07.170Z,14.07
2018-03-02T02:06:34.678Z,14.45
2018-03-02T02:09:02.165Z,12.82
2018-03-02T02:11:29.656Z,16.17
2018-03-02T02:13:57.151Z,15.13
2018-03-02T02:16:24.643Z,15.15
2018-03-02T02:18:52.129Z,17.23
2018-03-02T02:21:19.649Z,16.35
2018-03-02T02:23:47.177Z,13.98
2018-03-02T02:26:14.691Z,15.10
2018-03-02T02:28:42.165Z,16.90
2018-03-02T02:31:09.705Z,15.13
2018-03-02T02:33:37.243Z,16.50
2018-03-02T02:36:04.718Z,16.90
2018-03-02T02:38:32.218Z,17.92
2018-03-02T02:40:59.735Z,17.52
2018-03-02T02:43:27.212Z,16.05
2018-03-02T02:45:54.709Z,18.48
2018-03-02T02:48:22.203Z,17.08
2018-03-02T02:50:49.685Z,17.20
2018-03-02T02:53:17.185Z,17.20
2018-03-02T02:55:44.712Z,17.83
2018-03-02T02:58:12.215Z,17.33
2018-03-02T03:00:39.727Z,16.20
2018-03-02T03:03:07.219Z,17.15
2018-03-02T03:05:34.712Z,16.80
2018-03-02T03:08:02.200Z,17.87
2018-03-02T03:10:29.731Z,18.15
2018-03-02T03:12:57.212Z,17.62
2018-03-02T03:15:24.728Z,17.10
2018-03-02T03:17:52.229Z,17.98
2018-03-02T03:20:19.737Z,18.08
2018-03-02T03:22:47.243Z,17.98
2018-03-02T03:25:14.753Z,18.00
2018-03-02T03:27:42.261Z,19.70
2018-03-02T03:30:09.756Z,18.83
2018-03-02T03:32:37.254Z,19.30
2018-03-02T03:35:04.742Z,18.73
2018-03-02T03:37:32.232Z,19.48
2018-03-02T03:39:59.725Z,20.08
2018-03-02T03:42:27.228Z,18.55
2018-03-02T03:44:54.708Z,18.42
2018-03-02T03:47:22.188Z,18.33
2018-03-02T03:49:49.696Z,19.90
2018-03-02T03:52:17.182Z,20.05
2018-03-02T03:54:44.704Z,18.70
2018-03-02T03:57:12.213Z,18.12
2018-03-02T03:59:39.695Z,16.42
2018-03-02T04:02:07.195Z,17.85
2018-03-02T04:04:34.696Z,18.50
2018-03-02T04:07:02.188Z,16.65
2018-03-02T04:09:29.667Z,17.73
2018-03-02T04:11:57.165Z,18.60
2018-03-02T04:14:24.638Z,17.45
2018-03-02T04:16:52.123Z,17.85
2018-03-02T04:19:19.628Z,18.60
2018-03-02T04:21:47.146Z,19.30
2018-03-02T04:24:14.644Z,17.77
2018-03-02T04:26:42.135Z,19.15
2018-03-02T04:29:09.649Z,19.75
2018-03-02T04:31:37.167Z,17.98
2018-03-02T04:34:04.685Z,18.27
2018-03-02T04:36:32.168Z,18.73
2018-03-02T04:38:59.723Z,18.15
2018-03-02T04:41:27.205Z,18.92
2018-03-02T04:43:54.729Z,18.35
2018-03-02T04:46:22.231Z,18.45
2018-03-02T04:48:49.748Z,17.45
2018-03-02T04:51:17.239Z,18.37
2018-03-02T04:53:44.736Z,18.67
2018-03-02T04:56:12.234Z,20.50
2018-03-02T04:58:39.711Z,19.05
2018-03-02T05:01:07.244Z,18.08
2018-03-02T05:03:34.755Z,18.52
2018-03-02T05:06:02.243Z,18.08
2018-03-02T05:08:29.762Z,17.33
2018-03-02T05:10:57.256Z,17.83
2018-03-02T05:13:24.738Z,17.65
2018-03-02T05:15:52.226Z,17.17
2018-03-02T05:18:19.739Z,19.00
2018-03-02T05:20:47.212Z,17.15
2018-03-02T05:23:14.691Z,18.55
2018-03-02T05:25:42.193Z,18.20
2018-03-02T05:28:09.683Z,18.40
2018-03-02T05:30:37.187Z,17.45
2018-03-02T05:33:04.695Z,18.98
2018-03-02T05:35:32.190Z,17.85
2018-03-02T05:37:59.694Z,17.50
2018-03-02T05:40:27.220Z,18.20
2018-03-02T05:42:54.740Z,18.15
2018-03-02T05:45:22.212Z,16.50
2018-03-02T05:47:49.703Z,17.90
2018-03-02T05:50:17.195Z,18.50
2018-03-02T05:52:44.682Z,18.10
2018-03-02T05:55:12.186Z,18.58
2018-03-02T05:57:39.692Z,19.20
2018-03-02T06:00:07.254Z,18.12
2018-03-02T06:02:34.720Z,16.92
2018-03-02T06:05:02.201Z,20.05
2018-03-02T06:07:29.717Z,19.92
2018-03-02T06:09:57.215Z,19.40
2018-03-02T06:12:24.785Z,19.15
2018-03-02T06:14:52.281Z,20.15
2018-03-02T06:17:19.787Z,19.42
2018-03-02T06:19:47.294Z,21.25
2018-03-02T06:22:14.804Z,19.75
2018-03-02T06:24:42.302Z,21.15
2018-03-02T06:27:09.799Z,19.25
2018-03-02T06:29:37.308Z,20.10
2018-03-02T06:32:04.796Z,20.20
2018-03-02T06:34:32.283Z,20.80
2018-03-02T06:36:59.792Z,18.00
2018-03-02T06:39:27.267Z,20.55
2018-03-02T06:41:54.759Z,19.55
2018-03-02T06:44:22.260Z,20.48
2018-03-02T06:46:49.772Z,18.87
2018-03-02T06:49:17.271Z,20.37
2018-03-02T06:51:44.768Z,20.42
2018-03-02T06:54:12.285Z,20.10
2018-03-02T06:56:39.783Z,20.85
2018-03-02T06:59:07.289Z,21.30
2018-03-02T07:01:34.779Z,20.45
2018-03-02T07:04:02.274Z,19.52
2018-03-02T07:06:29.784Z,21.02
2018-03-02T07:08:57.292Z,22.67
2018-03-02T07:11:24.798Z,23.38
2018-03-02T07:13:52.315Z,18.87
2018-03-02T07:16:19.831Z,22.08
2018-03-02T07:18:47.287Z,22.95
2018-03-02T07:21:14.843Z,22.13
2018-03-02T07:23:42.347Z,19.95
2018-03-02T07:26:10.679Z,20.52
2018-03-02T07:28:38.176Z,22.42
2018-03-02T07:31:05.709Z,22.55
2018-03-02T07:33:33.280Z,21.37
2018-03-02T07:36:00.776Z,21.85
2018-03-02T07:38:28.301Z,22.10
2018-03-02T07:40:55.808Z,22.77
2018-03-02T07:43:23.290Z,23.38
2018-03-02T07:45:50.982Z,22.10
2018-03-02T07:48:18.480Z,21.90
2018-03-02T07:50:45.957Z,22.73
2018-03-02T07:53:13.471Z,21.75
2018-03-02T07:55:40.946Z,19.98
2018-03-02T07:58:08.460Z,22.62
2018-03-02T08:00:35.934Z,22.90
2018-03-02T08:03:03.431Z,21.05
2018-03-02T08:05:30.951Z,19.87
2018-03-02T08:07:58.465Z,23.80
2018-03-02T08:10:25.976Z,24.17
2018-03-02T08:12:53.470Z,21.77
2018-03-02T08:15:20.963Z,23.25
2018-03-02T08:17:48.467Z,16.87
2018-03-02T08:20:15.967Z,23.30
2018-03-02T08:25:17.995Z,22.67
2018-03-02T08:27:45.492Z,23.05
2018-03-02T08:30:13.004Z,24.73
2018-03-02T08:32:40.511Z,24.45
2018-03-02T08:35:07.996Z,24.00
2018-03-02T08:37:35.527Z,21.10
2018-03-02T08:40:03.019Z,24.27
2018-03-02T08:42:31.249Z,23.73
2018-03-02T08:44:58.743Z,24.48
2018-03-02T08:47:26.247Z,22.75
2018-03-02T08:49:53.762Z,23.02
2018-03-02T08:52:21.309Z,24.37
2018-03-02T08:54:48.808Z,24.40
2018-03-02T08:57:16.314Z,21.50
2018-03-02T08:59:43.869Z,23.15
2018-03-02T09:02:11.360Z,24.33
2018-03-02T09:04:38.858Z,17.23
2018-03-02T09:07:06.352Z,22.13
2018-03-02T09:09:33.847Z,24.02
2018-03-02T09:12:01.365Z,21.92
2018-03-02T09:14:28.876Z,20.17
2018-03-02T09:16:56.371Z,22.25
2018-03-02T09:19:23.900Z,20.50
2018-03-02T09:21:51.395Z,20.62
2018-03-02T09:24:18.953Z,21.98
2018-03-02T09:26:46.478Z,21.92
2018-03-02T09:29:13.977Z,20.85
2018-03-02T09:31:41.513Z,21.90
2018-03-02T09:34:09.003Z,21.52
2018-03-02T09:36:36.516Z,22.10
2018-03-02T09:39:04.060Z,22.62
2018-03-02T09:41:31.581Z,21.02
2018-03-02T09:43:59.094Z,21.73
2018-03-02T09:46:26.590Z,21.65
2018-03-02T09:48:54.083Z,20.70
2018-03-02T09:51:21.563Z,21.40
2018-03-02T09:53:49.063Z,20.73
2018-03-02T09:56:16.544Z,22.02
2018-03-02T09:58:44.071Z,22.05
2018-03-02T10:01:11.615Z,20.12
2018-03-02T10:03:39.103Z,21.23
2018-03-02T10:06:06.599Z,22.20
2018-03-02T10:08:34.093Z,23.67
2018-03-02T10:11:01.596Z,22.73
2018-03-02T10:13:29.107Z,23.55
2018-03-02T10:15:56.607Z,23.75
2018-03-02T10:18:24.147Z,25.23
2018-03-02T10:20:51.681Z,24.30
2018-03-02T10:23:19.216Z,25.17
2018-03-02T10:25:46.714Z,24.58
2018-03-02T10:28:14.283Z,24.52
2018-03-02T10:30:41.791Z,24.45
2018-03-02T10:33:09.292Z,24.27
2018-03-02T10:35:36.803Z,24.10
2018-03-02T10:38:04.297Z,23.55
2018-03-02T10:40:31.815Z,23.27
2018-03-02T10:42:59.304Z,24.15
2018-03-02T10:45:26.839Z,23.12
2018-03-02T10:47:54.346Z,23.52
2018-03-02T10:50:21.931Z,24.48
2018-03-02T10:52:49.447Z,22.85
2018-03-02T10:55:16.962Z,23.10
2018-03-02T10:57:44.446Z,22.45
2018-03-02T11:00:11.997Z,21.83
2018-03-02T11:02:45.130Z,25.35
2018-03-02T11:05:12.688Z,21.87
2018-03-02T11:07:40.211Z,25.17
2018-03-02T11:10:07.685Z,23.90
2018-03-02T11:12:35.260Z,23.85
2018-03-02T11:15:02.784Z,24.50
2018-03-02T11:17:30.300Z,25.50
2018-03-02T11:19:57.887Z,25.45
2018-03-02T11:22:25.405Z,24.15
2018-03-02T11:24:52.906Z,26.45
2018-03-02T11:27:21.051Z,26.83
2018-03-02T11:29:48.636Z,26.95
2018-03-02T11:32:16.471Z,26.58
2018-03-02T11:34:44.081Z,26.87
2018-03-02T11:37:11.604Z,26.92
2018-03-02T11:39:39.119Z,25.02
2018-03-02T11:42:06.647Z,26.23
2018-03-02T11:44:34.148Z,25.90
2018-03-02T11:47:01.654Z,27.90
2018-03-02T11:49:29.156Z,26.92
2018-03-02T11:51:56.671Z,27.23
2018-03-02T11:54:24.249Z,27.08
2018-03-02T11:56:51.753Z,26.73
2018-03-02T11:59:19.435Z,24.55
2018-03-02T12:01:46.941Z,26.80
2018-03-02T12:04:14.487Z,25.48
2018-03-02T12:06:41.983Z,24.58
2018-03-02T12:09:09.497Z,26.87
2018-03-02T12:11:36.992Z,24.60
2018-03-02T12:14:04.498Z,28.85
2018-03-02T12:16:32.027Z,24.83
2018-03-02T12:18:59.521Z,28.75
2018-03-02T12:21:27.032Z,26.67
2018-03-02T12:23:54.539Z,28.30
2018-03-02T12:26:22.919Z,26.65
2018-03-02T12:28:50.427Z,33.95
2018-03-02T12:31:17.928Z,26.85
2018-03-02T12:33:45.455Z,27.98
2018-03-02T12:36:12.942Z,27.83
2018-03-02T12:38:40.458Z,27.02
2018-03-02T12:41:07.990Z,23.60
2018-03-02T12:43:35.481Z,29.27
2018-03-02T12:46:02.998Z,24.37
2018-03-02T12:48:30.560Z,25.85
2018-03-02T12:50:58.072Z,24.15
2018-03-02T12:53:25.599Z,26.67
2018-03-02T12:55:53.198Z,29.45
2018-03-02T12:58:20.809Z,25.15
2018-03-02T13:00:48.341Z,23.77
2018-03-02T13:03:15.961Z,22.48
2018-03-02T13:05:43.647Z,25.05
2018-03-02T13:08:11.174Z,23.70
2018-03-02T13:10:38.666Z,23.40
2018-03-02T13:13:06.209Z,21.25
2018-03-02T13:15:33.732Z,22.95
2018-03-02T13:18:01.348Z,21.75
2018-03-02T13:20:28.906Z,24.37
2018-03-02T13:22:56.438Z,23.20
2018-03-02T13:25:24.131Z,21.92
2018-03-02T13:28:03.569Z,18.65
2018-03-02T13:30:31.307Z,21.90
2018-03-02T13:33:10.490Z,20.02
2018-03-02T13:35:37.995Z,19.70
2018-03-02T13:38:06.631Z,18.50
2018-03-02T13:40:45.631Z,20.92
2018-03-02T13:43:13.199Z,19.95
2018-03-02T13:45:40.753Z,21.52
2018-03-02T13:51:13.789Z,22.13
2018-03-02T13:53:41.401Z,21.27
2018-03-02T13:59:03.956Z,22.58
2018-03-02T14:01:31.448Z,26.35
2018-03-02T14:04:10.766Z,24.60
2018-03-02T14:06:38.274Z,24.05
2018-03-02T14:09:05.759Z,22.48
2018-03-02T14:11:33.276Z,24.23
2018-03-02T14:14:00.779Z,23.25
2018-03-02T14:16:28.272Z,22.55
2018-03-02T14:18:55.800Z,23.08
2018-03-02T14:21:23.309Z,19.92
2018-03-02T14:23:52.343Z,21.02
2018-03-02T14:26:20.789Z,21.50
2018-03-02T14:28:48.609Z,21.35
2018-03-02T14:31:16.107Z,18.00
2018-03-02T14:33:43.607Z,19.27
2018-03-02T14:36:11.128Z,18.17
2018-03-02T14:38:38.642Z,17.95
2018-03-02T14:41:06.128Z,18.17
2018-03-02T14:43:33.620Z,17.25
2018-03-02T14:46:01.117Z,18.83
2018-03-02T14:48:28.600Z,18.87
2018-03-02T14:50:56.123Z,19.90
2018-03-02T14:53:23.638Z,20.40
2018-03-02T14:55:51.760Z,19.62
2018-03-02T14:58:19.284Z,20.58
2018-03-02T15:00:46.762Z,19.77
2018-03-02T15:03:14.329Z,20.45
2018-03-02T15:05:41.842Z,19.10
2018-03-02T15:08:09.384Z,17.05
2018-03-02T15:10:36.962Z,15.48
2018-03-02T15:13:04.476Z,17.58
2018-03-02T15:15:31.994Z,15.40
2018-03-02T15:17:59.479Z,14.75
2018-03-02T15:20:26.975Z,14.18
2018-03-02T15:22:54.498Z,14.98
2018-03-02T15:25:21.991Z,14.55
2018-03-02T15:27:49.476Z,15.82
2018-03-02T15:30:16.968Z,16.98
2018-03-02T15:32:44.467Z,16.25
2018-03-02T15:35:12.080Z,15.68
2018-03-02T15:37:39.571Z,17.10
2018-03-02T15:40:07.143Z,17.50
2018-03-02T15:42:34.626Z,17.98
2018-03-02T15:45:02.116Z,20.00
2018-03-02T15:47:29.607Z,22.02
2018-03-02T15:49:57.144Z,22.25
2018-03-02T15:52:24.636Z,22.95
2018-03-02T15:54:52.132Z,20.40
2018-03-02T15:57:19.656Z,22.02
2018-03-02T15:59:47.167Z,19.42
2018-03-02T16:02:14.719Z,18.85
2018-03-02T16:04:42.297Z,18.05
2018-03-02T16:07:09.828Z,18.67
2018-03-02T16:09:37.435Z,18.30
2018-03-02T16:12:04.963Z,20.20
2018-03-02T16:14:32.466Z,18.52
2018-03-02T16:16:59.959Z,20.40
2018-03-02T16:19:27.432Z,19.35
2018-03-02T16:21:54.952Z,20.27
2018-03-02T16:24:22.517Z,21.33
2018-03-02T16:26:50.039Z,20.10
2018-03-02T16:29:17.563Z,20.73
2018-03-02T16:31:45.039Z,21.10
2018-03-02T16:34:12.596Z,21.85
2018-03-02T16:36:40.105Z,21.40
2018-03-02T16:39:07.625Z,21.48
2018-03-02T16:41:35.128Z,22.48
2018-03-02T16:44:02.654Z,22.70
2018-03-02T16:46:30.184Z,23.48
2018-03-02T16:48:57.664Z,24.20
2018-03-02T16:51:25.189Z,23.15
2018-03-02T16:53:52.696Z,22.27
2018-03-02T16:56:20.195Z,23.48
2018-03-02T16:58:47.698Z,25.52
2018-03-02T17:01:15.195Z,24.35
2018-03-02T17:03:42.696Z,23.20
2018-03-02T17:06:10.198Z,23.55
2018-03-02T17:08:37.731Z,24.00
2018-03-02T17:11:05.271Z,22.48
2018-03-02T17:13:32.763Z,19.95
2018-03-02T17:16:00.239Z,24.20
2018-03-02T17:18:27.780Z,23.00
2018-03-02T17:20:55.324Z,22.48
2018-03-02T17:23:22.839Z,23.95
2018-03-02T17:25:50.331Z,23.65
2018-03-02T17:28:17.869Z,23.48
2018-03-02T17:30:45.404Z,23.15
2018-03-02T17:33:12.976Z,24.37
2018-03-02T17:35:40.533Z,23.87
2018-03-02T17:38:08.044Z,22.62
2018-03-02T17:40:35.550Z,22.98
2018-03-02T17:43:03.178Z,24.35
2018-03-02T17:45:30.684Z,24.42
2018-03-02T17:47:58.219Z,24.48
2018-03-02T17:50:25.744Z,25.42
2018-03-02T17:52:53.223Z,25.00
2018-03-02T17:55:20.722Z,25.30
2018-03-02T17:57:48.242Z,25.62
2018-03-02T18:00:15.777Z,26.35
2018-03-02T18:05:14.383Z,25.85
2018-03-02T18:07:41.888Z,26.20
2018-03-02T18:10:09.383Z,26.37
2018-03-02T18:12:36.898Z,27.23
2018-03-02T18:15:04.472Z,26.95
2018-03-02T18:17:32.018Z,25.70
2018-03-02T18:19:59.515Z,26.15
2018-03-02T18:22:27.017Z,25.85
2018-03-02T18:24:54.538Z,24.17
2018-03-02T18:27:22.088Z,26.27
2018-03-02T18:29:49.623Z,26.80
2018-03-02T18:32:17.107Z,26.02
2018-03-02T18:34:44.601Z,26.30
2018-03-02T18:37:12.099Z,25.92
2018-03-02T18:39:39.584Z,24.55
2018-03-02T18:42:07.153Z,26.30
2018-03-02T18:44:34.676Z,26.42
2018-03-02T18:47:02.209Z,25.98
2018-03-02T18:49:29.695Z,27.33
2018-03-02T18:51:57.196Z,29.73
2018-03-02T18:54:24.700Z,28.92
2018-03-02T18:56:52.194Z,28.90
2018-03-02T18:59:19.709Z,30.35
2018-03-02T19:01:47.200Z,29.60
2018-03-02T19:04:14.685Z,30.90
2018-03-02T19:06:42.195Z,29.95
2018-03-02T19:09:09.705Z,28.77
2018-03-02T19:11:37.211Z,31.90
2018-03-02T19:14:04.698Z,32.08
2018-03-02T19:16:32.187Z,32.92
2018-03-02T19:18:59.685Z,33.92
2018-03-02T19:21:27.158Z,34.05
2018-03-02T19:23:54.722Z,33.92
2018-03-02T19:26:22.232Z,28.83
2018-03-02T19:28:49.783Z,28.95
2018-03-02T19:31:17.278Z,31.65
2018-03-02T19:33:44.783Z,31.75
2018-03-02T19:36:12.356Z,29.58
2018-03-02T19:38:39.830Z,29.20
2018-03-02T19:41:07.337Z,31.90
2018-03-02T19:43:34.872Z,30.30
2018-03-02T19:46:02.351Z,27.75
2018-03-02T19:48:29.858Z,25.75
2018-03-02T19:50:57.368Z,28.73
2018-03-02T19:53:24.858Z,27.70
2018-03-02T19:55:52.399Z,26.85
2018-03-02T19:58:20.754Z,27.42
2018-03-02T20:00:48.272Z,26.70
2018-03-02T20:03:15.761Z,28.48
2018-03-02T20:05:43.302Z,27.80
2018-03-02T20:08:10.860Z,27.48
2018-03-02T20:10:38.366Z,25.77
2018-03-02T20:13:05.844Z,27.90
2018-03-02T20:15:33.351Z,27.30
2018-03-02T20:18:00.865Z,28.02
2018-03-02T20:20:28.370Z,26.52
2018-03-02T20:22:55.859Z,25.65
2018-03-02T20:25:23.393Z,27.95
2018-03-02T20:27:50.884Z,28.23
2018-03-02T20:30:18.442Z,28.52
2018-03-02T20:32:46.027Z,30.12
2018-03-02T20:35:13.580Z,29.58
2018-03-02T20:37:41.028Z,29.27
2018-03-02T20:40:08.691Z,29.23
2018-03-02T20:42:36.217Z,30.42
2018-03-02T20:45:03.748Z,28.62
2018-03-02T20:47:31.304Z,28.05
2018-03-02T20:49:58.808Z,29.65
2018-03-02T20:52:26.308Z,31.40
2018-03-02T20:54:53.824Z,29.90
2018-03-02T20:57:21.317Z,29.95
2018-03-02T20:59:48.824Z,30.92
2018-03-02T21:02:16.342Z,29.75
2018-03-02T21:04:43.876Z,31.37
2018-03-02T21:07:11.423Z,29.85
2018-03-02T21:09:38.960Z,31.42
2018-03-02T21:12:06.519Z,30.40
2018-03-02T21:14:34.047Z,30.17
2018-03-02T21:17:01.623Z,30.88
2018-03-02T21:19:29.128Z,31.87
2018-03-02T21:21:56.649Z,30.25
2018-03-02T21:24:24.144Z,30.55
2018-03-02T21:26:51.701Z,30.73
2018-03-02T21:29:19.354Z,31.02
2018-03-02T21:31:46.880Z,28.50
2018-03-02T21:34:18.976Z,29.37
2018-03-02T21:36:41.891Z,24.45
2018-03-02T21:39:12.136Z,26.65
2018-03-02T21:41:36.950Z,25.80
2018-03-02T21:44:04.466Z,28.25
2018-03-02T21:46:31.956Z,28.40
2018-03-02T21:48:59.514Z,28.92
2018-03-02T21:51:26.990Z,28.62
2018-03-02T21:53:54.522Z,28.67
2018-03-02T21:56:22.024Z,30.58
2018-03-02T21:58:50.208Z,28.20
2018-03-02T22:01:17.719Z,27.77
2018-03-02T22:03:45.200Z,29.02
2018-03-02T22:06:12.674Z,31.42
2018-03-02T22:08:40.176Z,30.65
2018-03-02T22:11:07.663Z,28.23
2018-03-02T22:13:35.166Z,30.12
2018-03-02T22:16:02.651Z,27.85
2018-03-02T22:18:30.147Z,32.53
2018-03-02T22:20:57.655Z,34.40
2018-03-02T22:23:25.147Z,33.25
2018-03-02T22:25:52.650Z,34.10
2018-03-02T22:28:20.142Z,34.65
2018-03-02T22:30:47.632Z,33.50
2018-03-02T22:33:15.113Z,32.42
2018-03-02T22:35:42.609Z,34.30
2018-03-02T22:38:10.112Z,34.20
2018-03-02T22:40:37.620Z,35.03
2018-03-02T22:43:05.103Z,34.83
2018-03-02T22:45:32.588Z,36.10
2018-03-02T22:48:00.097Z,31.12
2018-03-02T22:50:27.575Z,34.80
2018-03-02T22:55:30.569Z,35.65
2018-03-02T22:57:58.084Z,35.13
2018-03-02T23:00:25.618Z,33.97
2018-03-02T23:02:53.087Z,34.95
2018-03-02T23:05:20.586Z,33.83
2018-03-02T23:07:48.079Z,35.38
2018-03-02T23:10:16.323Z,32.40
2018-03-02T23:12:43.815Z,34.25
2018-03-02T23:15:11.299Z,36.03
2018-03-02T23:17:38.790Z,34.28
2018-03-02T23:20:06.280Z,37.05
2018-03-02T23:22:33.765Z,34.08
2018-03-02T23:25:01.271Z,33.95
2018-03-02T23:27:28.758Z,32.97
2018-03-02T23:29:56.283Z,32.83
2018-03-02T23:32:23.775Z,32.90
2018-03-02T23:34:51.267Z,30.88
2018-03-02T23:37:18.767Z,29.58
2018-03-02T23:39:46.247Z,30.10
2018-03-02T23:42:13.727Z,28.38
2018-03-02T23:44:41.236Z,28.85
2018-03-02T23:47:08.764Z,30.30
2018-03-02T23:49:36.254Z,26.92
2018-03-02T23:52:03.759Z,30.40
2018-03-02T23:54:31.264Z,27.05
2018-03-02T23:56:58.756Z,31.08
2018-03-02T23:59:26.248Z,28.58
